sensor_id;sensor_type;location;lat;lon;timestamp;P1;durP1;ratioP1;P2;durP2;ratioP2
71753;SDS011;59593;51.716;7.016;2023-08-12T11:38:51;3.22;;;2.70;;
71753;SDS011;59593;51.716;7.016;2023-08-12T11:41:22;3.50;;;3.20;;
71753;SDS011;59593;51.716;7.016;2023-08-12T11:43:50;2.58;;;2.38;;
71753;SDS011;59593;51.716;7.016;2023-08-12T11:46:18;3.47;;;3.10;;
71753;SDS011;59593;51.716;7.016;2023-08-12T11:48:44;3.63;;;3.30;;
71753;SDS011;59593;51.716;7.016;2023-08-12T11:51:10;3.30;;;3.00;;
71753;SDS011;59593;51.716;7.016;2023-08-12T11:53:38;3.58;;;3.28;;
71753;SDS011;59593;51.716;7.016;2023-08-12T11:56:03;3.65;;;3.17;;
71753;SDS011;59593;51.716;7.016;2023-08-12T11:58:38;3.80;;;3.50;;
71753;SDS011;59593;51.716;7.016;2023-08-12T12:01:27;3.78;;;3.47;;
71753;SDS011;59593;51.716;7.016;2023-08-12T12:09:32;4.03;;;3.70;;
71753;SDS011;59593;51.716;7.016;2023-08-12T12:11:58;3.53;;;3.22;;
71753;SDS011;59593;51.716;7.016;2023-08-12T12:14:33;3.65;;;3.33;;
71753;SDS011;59593;51.716;7.016;2023-08-12T12:17:19;4.32;;;3.70;;
71753;SDS011;59593;51.716;7.016;2023-08-12T12:20:32;4.70;;;3.55;;
71753;SDS011;59593;51.716;7.016;2023-08-12T12:23:23;4.10;;;3.70;;
71753;SDS011;59593;51.716;7.016;2023-08-12T12:26:13;4.65;;;4.22;;
71753;SDS011;59593;51.716;7.016;2023-08-12T12:29:35;3.95;;;3.60;;
71753;SDS011;59593;51.716;7.016;2023-08-12T12:32:29;4.15;;;3.85;;
71753;SDS011;59593;51.716;7.016;2023-08-12T12:38:52;4.68;;;3.65;;
71753;SDS011;59593;51.716;7.016;2023-08-12T15:02:17;2.22;;;1.30;;
71753;SDS011;59593;51.716;7.016;2023-08-12T16:12:38;6.15;;;2.10;;
71753;SDS011;59593;51.716;7.016;2023-08-12T16:18:34;6.53;;;2.28;;
71753;SDS011;59593;51.716;7.016;2023-08-12T16:21:10;5.97;;;1.80;;
71753;SDS011;59593;51.716;7.016;2023-08-12T16:23:41;6.72;;;2.10;;
71753;SDS011;59593;51.716;7.016;2023-08-12T16:26:09;4.78;;;2.10;;
71753;SDS011;59593;51.716;7.016;2023-08-12T16:28:35;5.32;;;2.03;;
71753;SDS011;59593;51.716;7.016;2023-08-12T16:31:01;4.97;;;2.25;;
71753;SDS011;59593;51.716;7.016;2023-08-12T16:33:30;5.70;;;2.40;;
71753;SDS011;59593;51.716;7.016;2023-08-12T16:36:06;7.38;;;2.20;;
71753;SDS011;59593;51.716;7.016;2023-08-12T16:38:55;4.78;;;1.88;;
71753;SDS011;59593;51.716;7.016;2023-08-12T16:41:21;3.88;;;1.80;;
71753;SDS011;59593;51.716;7.016;2023-08-12T16:49:27;5.68;;;2.00;;
71753;SDS011;59593;51.716;7.016;2023-08-12T16:51:53;5.65;;;2.10;;
71753;SDS011;59593;51.716;7.016;2023-08-12T16:54:21;8.02;;;2.22;;
71753;SDS011;59593;51.716;7.016;2023-08-12T16:56:47;5.25;;;2.00;;
71753;SDS011;59593;51.716;7.016;2023-08-12T16:59:13;7.35;;;2.30;;
71753;SDS011;59593;51.716;7.016;2023-08-12T17:01:38;5.50;;;2.00;;
71753;SDS011;59593;51.716;7.016;2023-08-12T17:04:04;5.88;;;2.60;;
71753;SDS011;59593;51.716;7.016;2023-08-12T17:06:38;5.82;;;2.13;;
71753;SDS011;59593;51.716;7.016;2023-08-12T17:09:12;5.20;;;2.28;;
71753;SDS011;59593;51.716;7.016;2023-08-12T17:11:38;6.78;;;1.77;;
71753;SDS011;59593;51.716;7.016;2023-08-12T17:20:06;5.65;;;2.20;;
71753;SDS011;59593;51.716;7.016;2023-08-12T17:25:24;8.27;;;2.35;;
71753;SDS011;59593;51.716;7.016;2023-08-12T17:28:05;10.48;;;2.55;;
71753;SDS011;59593;51.716;7.016;2023-08-12T17:33:26;7.05;;;2.28;;
71753;SDS011;59593;51.716;7.016;2023-08-12T17:35:52;4.82;;;2.03;;
71753;SDS011;59593;51.716;7.016;2023-08-12T17:38:18;5.38;;;2.30;;
71753;SDS011;59593;51.716;7.016;2023-08-12T17:40:43;5.10;;;2.10;;
71753;SDS011;59593;51.716;7.016;2023-08-12T17:43:14;7.32;;;2.35;;
71753;SDS011;59593;51.716;7.016;2023-08-12T17:45:39;5.65;;;2.17;;
71753;SDS011;59593;51.716;7.016;2023-08-12T17:48:05;7.10;;;2.45;;
71753;SDS011;59593;51.716;7.016;2023-08-12T17:50:40;5.75;;;2.28;;
71753;SDS011;59593;51.716;7.016;2023-08-12T17:53:08;5.80;;;2.65;;
71753;SDS011;59593;51.716;7.016;2023-08-12T17:55:34;8.13;;;2.55;;
71753;SDS011;59593;51.716;7.016;2023-08-12T17:58:02;8.30;;;2.20;;
71753;SDS011;59593;51.716;7.016;2023-08-12T18:00:33;6.10;;;2.50;;
71753;SDS011;59593;51.716;7.016;2023-08-12T18:02:59;6.95;;;2.40;;
71753;SDS011;59593;51.716;7.016;2023-08-12T18:05:25;8.93;;;2.50;;
71753;SDS011;59593;51.716;7.016;2023-08-12T18:07:59;6.35;;;2.45;;
71753;SDS011;59593;51.716;7.016;2023-08-12T18:10:24;5.47;;;2.47;;
71753;SDS011;59593;51.716;7.016;2023-08-12T18:13:00;7.25;;;2.40;;
71753;SDS011;59593;51.716;7.016;2023-08-12T18:15:26;6.72;;;3.42;;
71753;SDS011;59593;51.716;7.016;2023-08-12T18:17:52;6.93;;;2.47;;
71753;SDS011;59593;51.716;7.016;2023-08-12T18:20:18;8.52;;;2.72;;
71753;SDS011;59593;51.716;7.016;2023-08-12T18:22:44;7.35;;;2.63;;
71753;SDS011;59593;51.716;7.016;2023-08-12T18:25:13;8.00;;;2.83;;
71753;SDS011;59593;51.716;7.016;2023-08-12T18:27:52;8.13;;;2.60;;
71753;SDS011;59593;51.716;7.016;2023-08-12T18:30:18;7.63;;;3.05;;
71753;SDS011;59593;51.716;7.016;2023-08-12T18:32:55;7.10;;;2.97;;
71753;SDS011;59593;51.716;7.016;2023-08-12T18:38:19;7.15;;;3.10;;
71753;SDS011;59593;51.716;7.016;2023-08-12T18:47:28;6.90;;;2.88;;
71753;SDS011;59593;51.716;7.016;2023-08-12T18:50:02;5.45;;;2.90;;
71753;SDS011;59593;51.716;7.016;2023-08-12T18:52:31;4.70;;;2.90;;
71753;SDS011;59593;51.716;7.016;2023-08-12T18:55:02;8.80;;;3.03;;
71753;SDS011;59593;51.716;7.016;2023-08-12T19:06:24;14.48;;;3.97;;
71753;SDS011;59593;51.716;7.016;2023-08-12T19:08:52;7.22;;;3.83;;
71753;SDS011;59593;51.716;7.016;2023-08-12T19:11:26;6.65;;;3.65;;
71753;SDS011;59593;51.716;7.016;2023-08-12T19:13:58;9.65;;;3.60;;
71753;SDS011;59593;51.716;7.016;2023-08-12T19:16:24;6.63;;;3.53;;
71753;SDS011;59593;51.716;7.016;2023-08-12T19:18:56;6.97;;;3.67;;
71753;SDS011;59593;51.716;7.016;2023-08-12T19:21:27;10.63;;;4.20;;
71753;SDS011;59593;51.716;7.016;2023-08-12T19:23:58;11.77;;;3.75;;
71753;SDS011;59593;51.716;7.016;2023-08-12T19:26:24;8.95;;;3.80;;
71753;SDS011;59593;51.716;7.016;2023-08-12T19:28:51;6.90;;;4.15;;
71753;SDS011;59593;51.716;7.016;2023-08-12T19:31:30;7.43;;;3.40;;
71753;SDS011;59593;51.716;7.016;2023-08-12T19:34:04;5.80;;;3.70;;
71753;SDS011;59593;51.716;7.016;2023-08-12T19:39:36;8.48;;;4.13;;
71753;SDS011;59593;51.716;7.016;2023-08-12T19:42:06;9.23;;;4.00;;
71753;SDS011;59593;51.716;7.016;2023-08-12T19:44:45;8.30;;;4.00;;
71753;SDS011;59593;51.716;7.016;2023-08-12T19:47:16;8.43;;;4.07;;
71753;SDS011;59593;51.716;7.016;2023-08-12T19:49:41;7.38;;;3.90;;
71753;SDS011;59593;51.716;7.016;2023-08-12T19:52:07;7.80;;;4.00;;
71753;SDS011;59593;51.716;7.016;2023-08-12T19:54:45;9.05;;;4.47;;
71753;SDS011;59593;51.716;7.016;2023-08-12T19:57:11;6.05;;;4.10;;
71753;SDS011;59593;51.716;7.016;2023-08-12T19:59:46;9.68;;;4.63;;
71753;SDS011;59593;51.716;7.016;2023-08-12T20:02:14;6.80;;;3.95;;
71753;SDS011;59593;51.716;7.016;2023-08-12T20:04:43;7.85;;;4.25;;
71753;SDS011;59593;51.716;7.016;2023-08-12T20:07:20;9.93;;;4.13;;
71753;SDS011;59593;51.716;7.016;2023-08-12T20:09:50;6.82;;;3.50;;
71753;SDS011;59593;51.716;7.016;2023-08-12T20:12:25;8.95;;;3.97;;
71753;SDS011;59593;51.716;7.016;2023-08-12T20:15:01;12.85;;;4.20;;
71753;SDS011;59593;51.716;7.016;2023-08-12T20:17:28;9.32;;;3.92;;
71753;SDS011;59593;51.716;7.016;2023-08-12T20:19:56;6.90;;;3.88;;
71753;SDS011;59593;51.716;7.016;2023-08-12T20:22:26;10.07;;;4.32;;
71753;SDS011;59593;51.716;7.016;2023-08-12T20:24:51;8.50;;;4.13;;
71753;SDS011;59593;51.716;7.016;2023-08-12T20:27:20;8.02;;;4.10;;
71753;SDS011;59593;51.716;7.016;2023-08-12T20:29:49;7.32;;;4.28;;
71753;SDS011;59593;51.716;7.016;2023-08-12T20:32:17;9.20;;;4.20;;
71753;SDS011;59593;51.716;7.016;2023-08-12T20:34:49;9.43;;;4.68;;
71753;SDS011;59593;51.716;7.016;2023-08-12T20:37:15;10.98;;;4.57;;
71753;SDS011;59593;51.716;7.016;2023-08-12T20:39:43;11.93;;;4.95;;
71753;SDS011;59593;51.716;7.016;2023-08-12T20:42:20;9.98;;;5.53;;
71753;SDS011;59593;51.716;7.016;2023-08-12T20:44:57;9.27;;;5.35;;
71753;SDS011;59593;51.716;7.016;2023-08-12T20:47:25;12.35;;;9.82;;
71753;SDS011;59593;51.716;7.016;2023-08-12T20:49:51;9.38;;;6.25;;
71753;SDS011;59593;51.716;7.016;2023-08-12T20:52:23;9.63;;;5.85;;
71753;SDS011;59593;51.716;7.016;2023-08-12T20:54:50;9.10;;;5.75;;
71753;SDS011;59593;51.716;7.016;2023-08-12T20:59:55;11.35;;;6.18;;
71753;SDS011;59593;51.716;7.016;2023-08-12T21:02:24;10.73;;;6.28;;
71753;SDS011;59593;51.716;7.016;2023-08-12T21:05:04;8.18;;;5.40;;
71753;SDS011;59593;51.716;7.016;2023-08-12T21:07:32;6.78;;;5.50;;
71753;SDS011;59593;51.716;7.016;2023-08-12T21:12:54;9.27;;;5.10;;
71753;SDS011;59593;51.716;7.016;2023-08-12T21:18:03;10.32;;;4.80;;
71753;SDS011;59593;51.716;7.016;2023-08-12T21:20:41;13.60;;;4.80;;
71753;SDS011;59593;51.716;7.016;2023-08-12T21:23:06;6.72;;;4.70;;
71753;SDS011;59593;51.716;7.016;2023-08-12T21:25:35;8.52;;;5.05;;
71753;SDS011;59593;51.716;7.016;2023-08-12T21:28:01;13.52;;;5.20;;
71753;SDS011;59593;51.716;7.016;2023-08-12T21:30:31;11.00;;;4.70;;
71753;SDS011;59593;51.716;7.016;2023-08-12T21:33:05;12.13;;;5.07;;
71753;SDS011;59593;51.716;7.016;2023-08-12T21:35:47;8.02;;;4.00;;
71753;SDS011;59593;51.716;7.016;2023-08-12T21:38:15;8.38;;;4.80;;
71753;SDS011;59593;51.716;7.016;2023-08-12T21:40:43;8.52;;;4.40;;
71753;SDS011;59593;51.716;7.016;2023-08-12T21:43:18;9.75;;;4.80;;
71753;SDS011;59593;51.716;7.016;2023-08-12T21:45:52;12.27;;;5.13;;
71753;SDS011;59593;51.716;7.016;2023-08-12T21:48:30;10.88;;;4.72;;
71753;SDS011;59593;51.716;7.016;2023-08-12T21:50:56;6.18;;;5.18;;
71753;SDS011;59593;51.716;7.016;2023-08-12T21:53:24;10.82;;;5.72;;
71753;SDS011;59593;51.716;7.016;2023-08-12T21:55:49;11.43;;;5.20;;
71753;SDS011;59593;51.716;7.016;2023-08-12T21:58:15;12.93;;;6.20;;
71753;SDS011;59593;51.716;7.016;2023-08-12T22:00:48;7.47;;;5.70;;
71753;SDS011;59593;51.716;7.016;2023-08-12T22:03:14;14.77;;;7.03;;
71753;SDS011;59593;51.716;7.016;2023-08-12T22:05:39;8.25;;;5.75;;
71753;SDS011;59593;51.716;7.016;2023-08-12T22:08:05;12.57;;;6.65;;
71753;SDS011;59593;51.716;7.016;2023-08-12T22:10:33;12.63;;;6.20;;
71753;SDS011;59593;51.716;7.016;2023-08-12T22:13:03;8.75;;;6.00;;
71753;SDS011;59593;51.716;7.016;2023-08-12T22:15:33;8.45;;;5.68;;
71753;SDS011;59593;51.716;7.016;2023-08-12T22:20:32;9.88;;;6.05;;
71753;SDS011;59593;51.716;7.016;2023-08-12T22:23:08;7.43;;;5.95;;
71753;SDS011;59593;51.716;7.016;2023-08-12T22:25:46;12.38;;;6.50;;
71753;SDS011;59593;51.716;7.016;2023-08-12T22:28:18;7.82;;;6.00;;
71753;SDS011;59593;51.716;7.016;2023-08-12T22:30:53;10.48;;;6.13;;
71753;SDS011;59593;51.716;7.016;2023-08-12T22:33:21;7.75;;;5.70;;
71753;SDS011;59593;51.716;7.016;2023-08-12T22:36:12;9.45;;;6.05;;
71753;SDS011;59593;51.716;7.016;2023-08-12T22:38:48;12.30;;;6.18;;
71753;SDS011;59593;51.716;7.016;2023-08-12T22:41:24;14.27;;;6.75;;
71753;SDS011;59593;51.716;7.016;2023-08-12T22:43:53;12.75;;;8.95;;
71753;SDS011;59593;51.716;7.016;2023-08-12T22:46:21;12.85;;;9.57;;
71753;SDS011;59593;51.716;7.016;2023-08-12T22:48:47;17.33;;;9.50;;
71753;SDS011;59593;51.716;7.016;2023-08-12T22:51:23;13.55;;;9.27;;
71753;SDS011;59593;51.716;7.016;2023-08-12T22:53:48;12.48;;;8.10;;
71753;SDS011;59593;51.716;7.016;2023-08-12T22:56:31;9.07;;;6.93;;
71753;SDS011;59593;51.716;7.016;2023-08-12T22:59:08;11.77;;;6.43;;
71753;SDS011;59593;51.716;7.016;2023-08-12T23:01:59;13.07;;;6.22;;
71753;SDS011;59593;51.716;7.016;2023-08-12T23:04:30;10.75;;;6.40;;
71753;SDS011;59593;51.716;7.016;2023-08-12T23:07:21;8.98;;;5.80;;
71753;SDS011;59593;51.716;7.016;2023-08-12T23:09:57;11.02;;;6.20;;
71753;SDS011;59593;51.716;7.016;2023-08-12T23:12:24;13.93;;;6.15;;
71753;SDS011;59593;51.716;7.016;2023-08-12T23:14:57;12.35;;;6.07;;
71753;SDS011;59593;51.716;7.016;2023-08-12T23:17:37;9.70;;;5.60;;
71753;SDS011;59593;51.716;7.016;2023-08-12T23:20:27;7.20;;;5.70;;
71753;SDS011;59593;51.716;7.016;2023-08-12T23:23:03;9.90;;;5.82;;
71753;SDS011;59593;51.716;7.016;2023-08-12T23:25:32;13.23;;;6.50;;
71753;SDS011;59593;51.716;7.016;2023-08-12T23:27:57;10.32;;;6.50;;
71753;SDS011;59593;51.716;7.016;2023-08-12T23:30:23;8.30;;;6.30;;
71753;SDS011;59593;51.716;7.016;2023-08-12T23:32:49;12.95;;;6.88;;
71753;SDS011;59593;51.716;7.016;2023-08-12T23:35:18;15.32;;;7.10;;
71753;SDS011;59593;51.716;7.016;2023-08-12T23:37:44;12.10;;;6.57;;
71753;SDS011;59593;51.716;7.016;2023-08-12T23:40:20;9.43;;;5.82;;
71753;SDS011;59593;51.716;7.016;2023-08-12T23:42:56;14.15;;;5.88;;
71753;SDS011;59593;51.716;7.016;2023-08-12T23:45:22;7.65;;;4.95;;
71753;SDS011;59593;51.716;7.016;2023-08-12T23:47:48;13.50;;;5.15;;
71753;SDS011;59593;51.716;7.016;2023-08-12T23:50:16;10.02;;;5.35;;
71753;SDS011;59593;51.716;7.016;2023-08-12T23:53:02;14.90;;;5.28;;
71753;SDS011;59593;51.716;7.016;2023-08-12T23:55:28;7.88;;;4.95;;
71753;SDS011;59593;51.716;7.016;2023-08-12T23:57:57;10.48;;;4.93;;
